createdAt,value
2023-03-13T00:00:09.065Z,75.09
2023-03-13T00:01:26.412Z,75.13
2023-03-13T00:02:27.979Z,75.35
2023-03-13T00:03:31.867Z,75.14
2023-03-13T00:04:33.414Z,75.11
2023-03-13T00:05:36.680Z,75.12
2023-03-13T00:06:42.289Z,75.30
2023-03-13T00:07:43.800Z,75.26
2023-03-13T00:08:46.299Z,75.33
2023-03-13T00:09:49.490Z,75.49
2023-03-13T00:10:52.223Z,75.58
2023-03-13T00:11:54.758Z,75.54
2023-03-13T00:12:56.354Z,75.44
2023-03-13T00:14:00.964Z,75.73
2023-03-13T00:15:02.817Z,75.65
2023-03-13T00:16:08.450Z,75.92
2023-03-13T00:17:10.290Z,75.85
2023-03-13T00:18:12.955Z,75.83
2023-03-13T00:19:15.902Z,75.86
2023-03-13T00:20:18.630Z,75.79
2023-03-13T00:21:23.074Z,75.89
2023-03-13T00:22:25.601Z,75.94
2023-03-13T00:23:27.467Z,75.95
2023-03-13T00:24:29.952Z,76.12
2023-03-13T00:25:31.543Z,76.08
2023-03-13T00:26:34.344Z,76.09
2023-03-13T00:27:35.949Z,76.11
2023-03-13T00:28:40.253Z,76.15
2023-03-13T00:29:41.833Z,76.26
2023-03-13T00:30:44.398Z,76.32
2023-03-13T00:31:46.100Z,76.26
2023-03-13T00:32:49.098Z,76.32
2023-03-13T00:33:53.641Z,76.51
2023-03-13T00:34:58.005Z,76.41
2023-03-13T00:36:00.693Z,76.81
2023-03-13T00:37:03.706Z,76.60
2023-03-13T00:38:05.308Z,76.57
2023-03-13T00:39:08.042Z,76.65
2023-03-13T00:40:11.548Z,76.84
2023-03-13T00:41:16.531Z,76.74
2023-03-13T00:42:19.091Z,77.05
2023-03-13T00:43:21.040Z,77.02
2023-03-13T00:44:28.794Z,76.70
2023-03-13T00:45:30.321Z,77.08
2023-03-13T00:46:32.875Z,77.29
2023-03-13T00:47:34.503Z,77.11
2023-03-13T00:48:37.768Z,77.38
2023-03-13T00:49:40.745Z,77.37
2023-03-13T00:50:43.606Z,77.52
2023-03-13T00:51:46.207Z,77.54
2023-03-13T00:52:57.763Z,77.63
2023-03-13T00:54:01.258Z,77.89
2023-03-13T00:55:04.101Z,77.52
2023-03-13T00:56:08.982Z,77.72
2023-03-13T00:57:10.508Z,77.95
2023-03-13T00:58:13.161Z,77.74
2023-03-13T00:59:14.871Z,77.96
2023-03-13T01:00:18.401Z,78.16
2023-03-13T01:01:23.069Z,78.10
2023-03-13T01:02:25.658Z,78.27
2023-03-13T01:03:27.500Z,78.18
2023-03-13T01:04:30.024Z,78.29
2023-03-13T01:05:31.551Z,78.54
2023-03-13T01:06:37.588Z,78.65
2023-03-13T01:07:39.117Z,78.55
2023-03-13T01:08:41.759Z,78.81
2023-03-13T01:09:43.276Z,78.76
2023-03-13T01:10:45.894Z,78.77
2023-03-13T01:11:47.458Z,78.89
2023-03-13T01:12:49.936Z,78.87
2023-03-13T01:13:54.610Z,78.92
2023-03-13T01:14:57.249Z,79.01
2023-03-13T01:16:02.945Z,79.18
2023-03-13T01:17:05.926Z,79.37
2023-03-13T01:18:07.473Z,79.32
2023-03-13T01:19:13.300Z,79.12
2023-03-13T01:20:15.376Z,79.28
2023-03-13T01:21:19.671Z,79.50
2023-03-13T01:22:22.656Z,79.59
2023-03-13T01:23:25.187Z,79.58
2023-03-13T01:24:26.727Z,79.54
2023-03-13T01:25:29.216Z,79.39
2023-03-13T01:26:30.782Z,79.98
2023-03-13T01:27:33.320Z,79.76
2023-03-13T01:28:35.787Z,79.74
2023-03-13T01:29:38.503Z,79.72
2023-03-13T01:30:40.033Z,80.02
2023-03-13T01:31:42.904Z,79.68
2023-03-13T01:32:44.469Z,79.92
2023-03-13T01:33:48.302Z,80.12
2023-03-13T01:34:49.852Z,79.85
2023-03-13T01:35:52.507Z,79.72
2023-03-13T01:36:54.305Z,79.80
2023-03-13T01:37:58.276Z,79.82
2023-03-13T01:39:01.202Z,79.88
2023-03-13T01:40:03.777Z,79.95
2023-03-13T01:41:07.881Z,79.85
2023-03-13T01:42:10.440Z,79.75
2023-03-13T01:43:28.093Z,80.08
2023-03-13T01:44:30.678Z,79.92
2023-03-13T01:46:10.104Z,80.01
2023-03-13T01:47:13.588Z,80.01
2023-03-13T01:48:15.491Z,80.27
2023-03-13T01:49:20.631Z,80.20
2023-03-13T01:50:22.427Z,80.26
2023-03-13T01:51:27.749Z,80.37
2023-03-13T01:52:31.158Z,80.60
2023-03-13T01:53:36.204Z,80.76
2023-03-13T01:54:43.401Z,80.67
2023-03-13T01:55:45.295Z,81.08
2023-03-13T01:56:52.311Z,81.41
2023-03-13T01:57:54.859Z,81.35
2023-03-13T01:58:58.869Z,81.52
2023-03-13T02:00:05.400Z,81.74
2023-03-13T02:01:11.642Z,82.03
2023-03-13T02:02:15.744Z,82.30
2023-03-13T02:03:20.796Z,82.57
2023-03-13T02:04:24.090Z,82.50
2023-03-13T02:05:27.612Z,82.75
2023-03-13T02:06:34.002Z,83.00
2023-03-13T02:07:41.748Z,83.06
2023-03-13T02:08:52.476Z,83.02
2023-03-13T02:09:56.700Z,83.19
2023-03-13T02:11:06.474Z,83.41
2023-03-13T02:12:11.419Z,83.44
2023-03-13T02:13:17.249Z,83.57
2023-03-13T02:14:22.655Z,83.82
2023-03-13T02:15:27.098Z,83.94
2023-03-13T02:16:30.194Z,84.17
2023-03-13T02:17:41.900Z,84.13
2023-03-13T02:18:44.981Z,84.22
2023-03-13T02:19:48.671Z,84.65
2023-03-13T02:20:55.846Z,84.68
2023-03-13T02:22:09.568Z,84.75
2023-03-13T02:23:16.965Z,84.83
2023-03-13T02:24:29.283Z,85.14
2023-03-13T02:25:39.839Z,84.81
2023-03-13T02:26:42.772Z,85.16
2023-03-13T02:27:45.766Z,85.06
2023-03-13T02:28:48.707Z,85.29
2023-03-13T02:29:51.770Z,85.45
2023-03-13T02:30:58.477Z,85.38
2023-03-13T02:32:00.219Z,85.33
2023-03-13T02:33:04.095Z,85.44
2023-03-13T02:34:06.090Z,85.60
2023-03-13T02:35:11.613Z,85.74
2023-03-13T02:36:16.872Z,85.55
2023-03-13T02:37:21.686Z,85.63
2023-03-13T02:38:25.411Z,86.12
2023-03-13T02:39:29.396Z,85.83
2023-03-13T02:40:36.551Z,86.03
2023-03-13T02:41:41.356Z,86.09
2023-03-13T02:42:54.899Z,86.30
2023-03-13T02:43:57.577Z,86.28
2023-03-13T02:44:59.227Z,86.23
2023-03-13T02:46:03.604Z,86.18
2023-03-13T02:47:05.474Z,86.48
2023-03-13T02:48:08.186Z,86.36
2023-03-13T02:49:22.499Z,86.51
2023-03-13T02:50:24.496Z,86.63
2023-03-13T02:51:31.708Z,86.55
2023-03-13T02:52:38.969Z,86.71
2023-03-13T02:53:42.886Z,86.98
2023-03-13T02:54:47.809Z,86.61
2023-03-13T02:55:51.886Z,86.86
2023-03-13T02:56:57.464Z,86.83
2023-03-13T02:57:59.984Z,87.04
2023-03-13T02:59:01.552Z,87.03
2023-03-13T03:00:06.849Z,87.33
2023-03-13T03:01:09.348Z,87.14
2023-03-13T03:02:12.323Z,87.16
2023-03-13T03:03:13.869Z,87.19
2023-03-13T03:04:16.388Z,87.30
2023-03-13T03:05:17.999Z,87.40
2023-03-13T03:06:20.734Z,87.52
2023-03-13T03:07:22.296Z,87.59
2023-03-13T03:08:25.202Z,87.51
2023-03-13T03:09:27.771Z,87.44
2023-03-13T03:10:29.497Z,87.74
2023-03-13T03:11:33.333Z,87.69
2023-03-13T03:12:34.945Z,87.81
2023-03-13T03:13:37.704Z,87.80
2023-03-13T03:14:39.304Z,87.96
2023-03-13T03:15:41.831Z,88.07
2023-03-13T03:16:43.869Z,88.00
2023-03-13T03:17:46.392Z,88.11
2023-03-13T03:18:48.352Z,87.92
2023-03-13T03:19:51.086Z,88.28
2023-03-13T03:20:52.722Z,88.32
2023-03-13T03:21:55.361Z,88.30
2023-03-13T03:22:56.877Z,88.11
2023-03-13T03:24:02.231Z,88.37
2023-03-13T03:25:06.188Z,88.56
2023-03-13T03:26:09.005Z,88.33
2023-03-13T03:27:11.915Z,88.65
2023-03-13T03:28:14.444Z,88.54
2023-03-13T03:29:16.075Z,88.56
2023-03-13T03:30:19.721Z,88.44
2023-03-13T03:31:21.348Z,88.52
2023-03-13T03:32:23.960Z,88.56
2023-03-13T03:33:25.468Z,88.69
2023-03-13T03:34:30.298Z,88.59
2023-03-13T03:35:31.912Z,88.74
2023-03-13T03:36:34.516Z,88.70
2023-03-13T03:37:36.227Z,88.65
2023-03-13T03:38:39.741Z,88.88
2023-03-13T03:39:41.264Z,88.76
2023-03-13T03:40:44.153Z,88.74
2023-03-13T03:41:45.745Z,88.83
2023-03-13T03:42:57.129Z,88.63
2023-03-13T03:43:58.699Z,88.84
2023-03-13T03:45:01.188Z,88.85
2023-03-13T03:46:03.246Z,88.81
2023-03-13T03:47:06.077Z,88.88
2023-03-13T03:48:07.661Z,88.74
2023-03-13T03:49:10.187Z,88.99
2023-03-13T03:50:11.759Z,88.82
2023-03-13T03:51:14.541Z,88.88
2023-03-13T03:52:16.113Z,88.68
2023-03-13T03:53:18.586Z,88.91
2023-03-13T03:54:20.149Z,88.83
2023-03-13T03:55:22.958Z,88.88
2023-03-13T03:56:24.710Z,89.00
2023-03-13T03:57:27.242Z,88.91
2023-03-13T03:58:30.282Z,88.88
2023-03-13T03:59:32.765Z,88.81
2023-03-13T04:00:34.361Z,88.79
2023-03-13T04:01:36.864Z,89.01
2023-03-13T04:02:38.651Z,88.96
2023-03-13T04:03:41.332Z,88.93
2023-03-13T04:04:43.022Z,89.05
2023-03-13T04:05:45.551Z,89.00
2023-03-13T04:06:48.623Z,88.84
2023-03-13T04:07:51.569Z,89.17
2023-03-13T04:08:53.271Z,89.01
2023-03-13T04:09:55.774Z,89.20
2023-03-13T04:10:57.286Z,89.01
2023-03-13T04:11:59.778Z,89.16
2023-03-13T04:13:01.943Z,89.02
2023-03-13T04:14:05.767Z,89.25
2023-03-13T04:15:09.067Z,89.18
2023-03-13T04:16:11.189Z,89.06
2023-03-13T04:17:13.778Z,89.28
2023-03-13T04:18:16.466Z,89.16
2023-03-13T04:19:18.977Z,89.04
2023-03-13T04:20:20.814Z,89.08
2023-03-13T04:21:23.341Z,89.19
2023-03-13T04:22:25.305Z,88.97
2023-03-13T04:23:27.779Z,88.99
2023-03-13T04:24:29.338Z,88.98
2023-03-13T04:25:31.885Z,89.12
2023-03-13T04:26:33.403Z,89.18
2023-03-13T04:27:42.209Z,89.01
2023-03-13T04:28:43.744Z,88.93
2023-03-13T04:29:47.595Z,89.02
2023-03-13T04:30:49.334Z,88.97
2023-03-13T04:31:52.281Z,89.14
2023-03-13T04:32:54.750Z,89.33
2023-03-13T04:33:57.707Z,89.05
2023-03-13T04:34:59.371Z,89.12
2023-03-13T04:36:02.002Z,89.19
2023-03-13T04:37:03.581Z,89.14
2023-03-13T04:38:06.076Z,89.12
2023-03-13T04:39:07.605Z,89.10
2023-03-13T04:40:12.576Z,89.06
2023-03-13T04:41:14.183Z,89.19
2023-03-13T04:42:16.682Z,89.26
2023-03-13T04:43:18.638Z,89.39
2023-03-13T04:44:21.934Z,89.06
2023-03-13T04:45:24.880Z,88.89
2023-03-13T04:46:27.487Z,88.98
2023-03-13T04:47:29.046Z,89.22
2023-03-13T04:48:31.597Z,89.33
2023-03-13T04:49:33.108Z,89.22
2023-03-13T04:50:35.761Z,89.21
2023-03-13T04:51:37.296Z,89.15
2023-03-13T04:52:39.902Z,89.28
2023-03-13T04:53:41.417Z,89.27
2023-03-13T04:54:43.903Z,89.25
2023-03-13T04:55:45.689Z,89.40
2023-03-13T04:56:48.865Z,89.34
2023-03-13T04:57:50.388Z,89.32
2023-03-13T04:58:53.607Z,89.54
2023-03-13T04:59:55.182Z,89.40
2023-03-13T05:00:59.078Z,89.63
2023-03-13T05:02:00.612Z,89.37
2023-03-13T05:03:03.114Z,89.33
2023-03-13T05:04:05.108Z,89.42
2023-03-13T05:05:08.139Z,89.29
2023-03-13T05:06:10.048Z,89.33
2023-03-13T05:07:12.532Z,89.26
2023-03-13T05:08:14.077Z,89.27
2023-03-13T05:09:16.650Z,89.27
2023-03-13T05:10:18.460Z,89.35
2023-03-13T05:11:20.982Z,89.53
2023-03-13T05:12:22.524Z,89.14
2023-03-13T05:13:25.134Z,89.58
2023-03-13T05:14:26.730Z,89.56
2023-03-13T05:15:29.973Z,89.29
2023-03-13T05:16:32.855Z,89.32
2023-03-13T05:17:35.421Z,89.06
2023-03-13T05:18:37.015Z,89.25
2023-03-13T05:19:39.561Z,89.29
2023-03-13T05:20:41.117Z,89.60
2023-03-13T05:21:43.613Z,89.36
2023-03-13T05:22:45.296Z,89.07
2023-03-13T05:23:47.877Z,89.39
2023-03-13T05:24:49.530Z,89.36
2023-03-13T05:25:51.998Z,89.22
2023-03-13T05:26:54.475Z,89.27
2023-03-13T05:27:56.272Z,89.22
2023-03-13T05:28:58.794Z,89.28
2023-03-13T05:30:01.262Z,89.37
2023-03-13T05:31:03.046Z,89.21
2023-03-13T05:32:07.348Z,89.36
2023-03-13T05:33:08.891Z,89.38
2023-03-13T05:34:21.506Z,89.36
2023-03-13T05:35:23.273Z,89.30
2023-03-13T05:36:26.555Z,89.33
2023-03-13T05:37:28.193Z,89.36
2023-03-13T05:38:40.864Z,89.62
2023-03-13T05:39:42.366Z,89.29
2023-03-13T05:40:44.948Z,89.25
2023-03-13T05:41:46.487Z,89.25
2023-03-13T05:42:49.067Z,89.14
2023-03-13T05:43:50.667Z,89.26
2023-03-13T05:44:55.371Z,89.21
2023-03-13T05:45:57.856Z,89.31
2023-03-13T05:46:59.397Z,89.24
2023-03-13T05:48:03.477Z,89.08
2023-03-13T05:49:05.036Z,89.07
2023-03-13T05:50:08.984Z,89.27
2023-03-13T05:51:10.576Z,89.14
2023-03-13T05:52:13.057Z,89.30
2023-03-13T05:53:14.627Z,89.19
2023-03-13T05:54:26.948Z,88.89
2023-03-13T05:55:28.525Z,89.26
2023-03-13T05:56:31.142Z,89.13
2023-03-13T05:57:32.718Z,89.05
2023-03-13T05:58:35.260Z,89.08
2023-03-13T05:59:36.859Z,89.10
2023-03-13T06:00:39.429Z,89.09
2023-03-13T06:01:40.981Z,89.09
2023-03-13T06:02:44.352Z,89.33
2023-03-13T06:03:47.460Z,89.44
2023-03-13T06:04:50.248Z,89.10
2023-03-13T06:05:58.684Z,88.82
2023-03-13T06:07:00.536Z,88.96
2023-03-13T06:08:03.203Z,88.99
2023-03-13T06:09:04.904Z,88.87
2023-03-13T06:10:08.095Z,88.99
2023-03-13T06:11:09.721Z,88.82
2023-03-13T06:12:13.145Z,88.85
2023-03-13T06:13:20.152Z,88.77
2023-03-13T06:14:23.483Z,88.66
2023-03-13T06:15:25.050Z,89.01
2023-03-13T06:16:27.726Z,88.71
2023-03-13T06:17:29.348Z,88.66
2023-03-13T06:18:32.027Z,88.58
2023-03-13T06:19:34.923Z,88.52
2023-03-13T06:20:37.606Z,88.56
2023-03-13T06:21:39.285Z,88.53
2023-03-13T06:22:42.546Z,88.52
2023-03-13T06:23:44.139Z,88.34
2023-03-13T06:24:49.447Z,88.24
2023-03-13T06:25:53.558Z,88.26
2023-03-13T06:26:56.308Z,88.22
2023-03-13T06:27:57.869Z,88.21
2023-03-13T06:29:00.558Z,88.06
2023-03-13T06:30:03.170Z,88.14
2023-03-13T06:31:14.870Z,88.04
2023-03-13T06:32:17.513Z,87.97
2023-03-13T06:33:19.268Z,87.95
2023-03-13T06:34:21.888Z,87.76
2023-03-13T06:35:26.028Z,87.89
2023-03-13T06:36:27.702Z,87.76
2023-03-13T06:37:30.468Z,87.77
2023-03-13T06:38:32.668Z,87.69
2023-03-13T06:39:35.278Z,87.40
2023-03-13T06:40:36.882Z,87.52
2023-03-13T06:41:39.957Z,87.09
2023-03-13T06:42:41.643Z,87.43
2023-03-13T06:43:44.974Z,87.41
2023-03-13T06:44:46.747Z,87.33
2023-03-13T06:45:49.359Z,87.33
2023-03-13T06:46:51.100Z,87.21
2023-03-13T06:47:53.853Z,87.20
2023-03-13T06:48:55.544Z,87.20
2023-03-13T06:49:58.088Z,87.13
2023-03-13T06:51:01.998Z,87.00
2023-03-13T06:52:04.744Z,86.84
2023-03-13T06:53:06.401Z,86.84
2023-03-13T06:54:09.094Z,86.57
2023-03-13T06:55:12.044Z,86.76
2023-03-13T06:56:15.022Z,86.61
2023-03-13T06:57:16.555Z,86.55
2023-03-13T06:58:31.589Z,86.63
2023-03-13T06:59:34.847Z,86.42
2023-03-13T07:00:36.982Z,86.42
2023-03-13T07:01:39.550Z,86.38
2023-03-13T07:02:41.090Z,86.13
2023-03-13T07:03:44.214Z,86.01
2023-03-13T07:04:47.189Z,86.15
2023-03-13T07:05:48.738Z,85.83
2023-03-13T07:06:53.374Z,85.92
2023-03-13T07:07:54.922Z,85.92
2023-03-13T07:08:57.430Z,85.89
2023-03-13T07:09:59.393Z,85.99
2023-03-13T07:11:04.654Z,85.71
2023-03-13T07:12:07.245Z,85.66
2023-03-13T07:13:09.758Z,85.68
2023-03-13T07:14:16.981Z,85.56
2023-03-13T07:15:20.206Z,85.56
2023-03-13T07:16:22.905Z,85.42
2023-03-13T07:17:24.738Z,85.51
2023-03-13T07:18:27.444Z,85.24
2023-03-13T07:19:29.937Z,85.21
2023-03-13T07:20:31.545Z,85.08
2023-03-13T07:21:34.587Z,85.20
2023-03-13T07:22:37.606Z,84.89
2023-03-13T07:23:41.054Z,84.98
2023-03-13T07:24:45.957Z,84.63
2023-03-13T07:25:54.240Z,84.70
2023-03-13T07:27:06.211Z,84.55
2023-03-13T07:28:08.991Z,84.67
2023-03-13T07:29:11.600Z,84.61
2023-03-13T07:30:13.950Z,84.42
2023-03-13T07:31:23.990Z,84.33
2023-03-13T07:32:26.625Z,84.20
2023-03-13T07:33:28.309Z,84.43
2023-03-13T07:34:31.240Z,84.20
2023-03-13T07:35:32.845Z,83.86
2023-03-13T07:36:36.153Z,83.85
2023-03-13T07:37:40.248Z,83.86
2023-03-13T07:38:43.904Z,83.58
2023-03-13T07:39:46.494Z,83.46
2023-03-13T07:40:49.538Z,83.53
2023-03-13T07:41:52.063Z,83.42
2023-03-13T07:42:53.596Z,83.50
2023-03-13T07:43:56.341Z,83.10
2023-03-13T07:44:57.891Z,83.18
2023-03-13T07:46:02.053Z,83.02
2023-03-13T07:47:05.083Z,82.93
2023-03-13T07:48:06.638Z,82.98
2023-03-13T07:49:09.127Z,83.02
2023-03-13T07:50:11.596Z,82.94
2023-03-13T07:51:16.396Z,82.75
2023-03-13T07:52:18.982Z,82.41
2023-03-13T07:53:23.145Z,82.35
2023-03-13T07:54:25.754Z,82.35
2023-03-13T07:55:27.531Z,82.30
2023-03-13T07:56:30.415Z,82.15
2023-03-13T07:57:32.224Z,81.86
2023-03-13T07:58:37.327Z,82.05
2023-03-13T07:59:38.872Z,81.71
2023-03-13T08:00:41.398Z,81.68
2023-03-13T08:01:50.921Z,81.75
2023-03-13T08:02:52.683Z,81.36
2023-03-13T08:03:55.818Z,81.60
2023-03-13T08:05:06.572Z,81.36
2023-03-13T08:06:10.845Z,81.40
2023-03-13T08:07:13.639Z,80.92
2023-03-13T08:08:15.150Z,81.20
2023-03-13T08:09:28.975Z,81.15
2023-03-13T08:10:31.113Z,80.90
2023-03-13T08:11:33.974Z,80.92
2023-03-13T08:12:35.525Z,81.09
2023-03-13T08:13:38.992Z,80.68
2023-03-13T08:14:41.622Z,80.64
2023-03-13T08:15:43.256Z,80.71
2023-03-13T08:16:45.840Z,80.66
2023-03-13T08:17:47.438Z,80.37
2023-03-13T08:18:52.787Z,80.24
2023-03-13T08:19:54.418Z,80.37
2023-03-13T08:20:56.966Z,79.97
2023-03-13T08:21:59.469Z,80.05
2023-03-13T08:23:01.090Z,79.87
2023-03-13T08:24:05.888Z,79.91
2023-03-13T08:25:10.513Z,79.93
2023-03-13T08:26:13.687Z,79.96
2023-03-13T08:27:16.464Z,79.65
2023-03-13T08:28:18.950Z,79.61
2023-03-13T08:29:21.498Z,79.63
2023-03-13T08:30:23.030Z,79.58
2023-03-13T08:31:27.883Z,79.46
2023-03-13T08:32:30.395Z,79.56
2023-03-13T08:33:32.005Z,79.37
2023-03-13T08:34:36.837Z,79.47
2023-03-13T08:35:39.441Z,79.29
2023-03-13T08:36:42.623Z,79.22
2023-03-13T08:37:44.236Z,79.18
2023-03-13T08:38:47.839Z,79.22
2023-03-13T08:39:49.836Z,78.92
2023-03-13T08:40:58.572Z,79.14
2023-03-13T08:42:01.068Z,79.08
2023-03-13T08:43:03.533Z,78.82
2023-03-13T08:44:06.493Z,79.02
2023-03-13T08:45:09.752Z,78.97
2023-03-13T08:46:12.621Z,78.80
2023-03-13T08:47:15.505Z,79.12
2023-03-13T08:48:17.005Z,79.00
2023-03-13T08:49:19.786Z,79.08
2023-03-13T08:50:22.503Z,78.84
2023-03-13T08:51:27.024Z,78.90
2023-03-13T08:52:29.604Z,79.01
2023-03-13T08:53:32.280Z,78.63
2023-03-13T08:54:35.245Z,79.01
2023-03-13T08:55:37.710Z,78.77
2023-03-13T08:56:43.424Z,78.84
2023-03-13T08:57:46.257Z,79.01
2023-03-13T08:58:49.946Z,79.02
2023-03-13T08:59:52.842Z,79.06
2023-03-13T09:00:55.092Z,79.10
2023-03-13T09:01:57.548Z,79.06
2023-03-13T09:02:59.185Z,79.12
2023-03-13T09:04:04.448Z,78.79
2023-03-13T09:05:07.464Z,78.73
2023-03-13T09:06:11.213Z,78.85
2023-03-13T09:07:12.811Z,78.88
2023-03-13T09:08:15.958Z,78.77
2023-03-13T09:09:18.895Z,78.87
2023-03-13T09:10:20.545Z,78.95
2023-03-13T09:11:23.086Z,78.76
2023-03-13T09:12:31.194Z,78.84
2023-03-13T09:13:36.686Z,78.74
2023-03-13T09:14:39.293Z,78.55
2023-03-13T09:15:40.957Z,78.99
2023-03-13T09:16:46.212Z,78.83
2023-03-13T09:17:48.785Z,78.94
2023-03-13T09:18:51.610Z,78.82
2023-03-13T09:20:00.547Z,78.74
2023-03-13T09:21:04.834Z,79.01
2023-03-13T09:22:07.359Z,78.86
2023-03-13T09:23:08.867Z,78.90
2023-03-13T09:24:11.407Z,78.84
2023-03-13T09:25:14.510Z,78.82
2023-03-13T09:26:17.262Z,79.21
2023-03-13T09:27:19.717Z,79.05
2023-03-13T09:28:24.642Z,79.37
2023-03-13T09:29:27.351Z,79.25
2023-03-13T09:30:29.884Z,79.28
2023-03-13T09:31:34.237Z,79.40
2023-03-13T09:32:37.104Z,79.28
2023-03-13T09:33:40.436Z,79.06
2023-03-13T09:34:43.020Z,79.10
2023-03-13T09:35:50.520Z,79.23
2023-03-13T09:36:53.165Z,79.05
2023-03-13T09:37:54.805Z,79.32
2023-03-13T09:38:59.161Z,79.10
2023-03-13T09:40:01.878Z,79.05
2023-03-13T09:41:24.934Z,79.15
2023-03-13T09:42:36.292Z,78.93
2023-03-13T09:43:47.645Z,79.24
2023-03-13T09:44:54.544Z,79.24
2023-03-13T09:46:03.064Z,79.59
2023-03-13T09:47:11.826Z,79.53
2023-03-13T09:48:31.159Z,79.30
2023-03-13T09:49:38.479Z,79.50
2023-03-13T09:50:44.385Z,79.69
2023-03-13T09:51:51.706Z,79.69
2023-03-13T09:52:57.412Z,79.58
2023-03-13T09:54:07.393Z,79.42
2023-03-13T09:55:15.461Z,79.52
2023-03-13T09:56:21.451Z,79.27
2023-03-13T09:57:31.691Z,79.07
2023-03-13T09:58:34.889Z,79.13
2023-03-13T09:59:48.069Z,78.91
2023-03-13T10:00:55.918Z,79.02
2023-03-13T10:02:00.409Z,78.98
2023-03-13T10:03:09.913Z,78.64
2023-03-13T10:04:28.667Z,78.54
2023-03-13T10:05:32.425Z,78.39
2023-03-13T10:06:41.297Z,78.31
2023-03-13T10:07:44.395Z,78.24
2023-03-13T10:08:45.972Z,78.08
2023-03-13T10:09:48.479Z,78.07
2023-03-13T10:10:55.553Z,78.18
2023-03-13T10:12:05.910Z,77.96
2023-03-13T10:13:23.977Z,77.91
2023-03-13T10:14:31.840Z,77.80
2023-03-13T10:15:44.828Z,77.63
2023-03-13T10:16:51.055Z,77.72
2023-03-13T10:17:54.200Z,77.82
2023-03-13T10:18:58.144Z,77.83
2023-03-13T10:20:09.011Z,77.78
2023-03-13T10:21:17.657Z,77.58
2023-03-13T10:22:23.504Z,77.59
2023-03-13T10:23:40.538Z,77.63
2023-03-13T10:24:48.297Z,77.50
2023-03-13T10:25:50.981Z,77.40
2023-03-13T10:26:52.957Z,77.33
2023-03-13T10:27:55.826Z,77.22
2023-03-13T10:29:03.351Z,76.98
2023-03-13T10:30:05.958Z,76.97
2023-03-13T10:31:18.848Z,76.82
2023-03-13T10:32:21.056Z,76.76
2023-03-13T10:33:25.887Z,76.77
2023-03-13T10:34:30.112Z,76.76
2023-03-13T10:35:35.111Z,76.57
2023-03-13T10:36:41.800Z,76.35
2023-03-13T10:37:44.981Z,76.25
2023-03-13T10:38:50.888Z,76.27
2023-03-13T10:39:54.250Z,76.01
2023-03-13T10:40:58.665Z,75.87
2023-03-13T10:42:11.097Z,75.60
2023-03-13T10:43:17.063Z,75.60
2023-03-13T10:44:21.436Z,75.23
2023-03-13T10:45:25.563Z,75.03
2023-03-13T10:46:31.884Z,74.82
2023-03-13T10:47:36.128Z,74.71
2023-03-13T10:48:38.883Z,74.46
2023-03-13T10:49:50.064Z,74.24
2023-03-13T10:50:53.881Z,74.14
2023-03-13T10:51:58.438Z,73.98
2023-03-13T10:53:20.684Z,73.85
2023-03-13T10:54:25.503Z,73.81
2023-03-13T10:55:27.208Z,73.74
2023-03-13T10:56:31.653Z,73.41
2023-03-13T10:57:36.130Z,73.32
2023-03-13T10:58:42.876Z,73.03
2023-03-13T10:59:48.076Z,72.84
2023-03-13T11:00:51.156Z,72.80
2023-03-13T11:02:01.351Z,72.66
2023-03-13T11:03:06.918Z,72.45
2023-03-13T11:04:21.227Z,72.37
2023-03-13T11:05:38.879Z,72.39
2023-03-13T11:06:41.929Z,72.12
2023-03-13T11:07:46.166Z,71.92
2023-03-13T11:08:48.706Z,71.86
2023-03-13T11:09:59.374Z,71.63
2023-03-13T11:11:02.464Z,71.55
2023-03-13T11:12:08.049Z,71.37
2023-03-13T11:13:36.543Z,71.23
2023-03-13T11:14:40.484Z,71.41
2023-03-13T11:15:48.312Z,71.15
2023-03-13T11:16:52.432Z,71.12
2023-03-13T11:18:01.250Z,70.94
2023-03-13T11:19:21.884Z,70.78
2023-03-13T11:20:28.498Z,70.61
2023-03-13T11:21:37.563Z,70.44
2023-03-13T11:23:06.140Z,70.48
2023-03-13T11:24:15.364Z,70.49
2023-03-13T11:25:23.218Z,70.45
2023-03-13T11:26:35.905Z,70.52
2023-03-13T11:27:46.802Z,70.46
2023-03-13T11:28:55.280Z,70.27
2023-03-13T11:30:19.753Z,70.23
2023-03-13T11:31:28.383Z,69.73
2023-03-13T11:32:39.382Z,69.81
2023-03-13T11:33:53.334Z,69.48
2023-03-13T11:34:59.433Z,69.52
2023-03-13T11:36:04.916Z,69.43
2023-03-13T11:37:12.537Z,69.33
2023-03-13T11:38:19.939Z,69.11
2023-03-13T11:39:42.849Z,69.08
2023-03-13T11:40:54.227Z,69.16
2023-03-13T11:42:01.885Z,69.08
2023-03-13T11:43:25.491Z,68.95
2023-03-13T11:44:35.318Z,68.74
2023-03-13T11:46:02.434Z,68.57
2023-03-13T11:47:21.464Z,68.65
2023-03-13T11:48:43.582Z,68.64
2023-03-13T11:49:59.666Z,68.43
2023-03-13T11:51:12.759Z,68.44
2023-03-13T11:52:26.845Z,68.40
2023-03-13T11:53:46.420Z,68.40
2023-03-13T11:55:04.329Z,68.34
2023-03-13T11:56:13.348Z,68.51
2023-03-13T11:57:22.082Z,68.31
2023-03-13T11:58:39.092Z,68.01
2023-03-13T11:59:52.373Z,68.09
2023-03-13T12:00:59.701Z,67.89
2023-03-13T12:02:08.296Z,67.75
2023-03-13T12:03:16.839Z,67.73
2023-03-13T12:04:26.022Z,67.75
2023-03-13T12:05:43.358Z,67.48
2023-03-13T12:06:50.536Z,67.33
2023-03-13T12:07:58.348Z,67.22
2023-03-13T12:09:11.909Z,67.39
2023-03-13T12:10:16.220Z,67.24
2023-03-13T12:11:26.373Z,67.12
2023-03-13T12:12:38.590Z,66.88
2023-03-13T12:13:46.074Z,66.98
2023-03-13T12:14:56.647Z,66.88
2023-03-13T12:16:05.042Z,66.78
2023-03-13T12:17:12.513Z,67.07
2023-03-13T12:18:20.146Z,66.79
2023-03-13T12:19:35.052Z,66.93
2023-03-13T12:20:44.982Z,67.39
2023-03-13T12:21:50.809Z,66.96
2023-03-13T12:22:58.414Z,67.02
2023-03-13T12:24:07.652Z,66.97
2023-03-13T12:25:15.979Z,66.93
2023-03-13T12:26:21.204Z,67.02
2023-03-13T12:27:32.572Z,66.65
2023-03-13T12:28:42.497Z,66.85
2023-03-13T12:29:53.537Z,66.77
2023-03-13T12:31:03.820Z,66.64
2023-03-13T12:32:13.608Z,66.86
2023-03-13T12:33:20.707Z,66.59
2023-03-13T12:34:29.957Z,66.61
2023-03-13T12:35:33.280Z,66.42
2023-03-13T12:36:44.591Z,66.62
2023-03-13T12:37:54.162Z,66.45
2023-03-13T12:39:00.907Z,66.57
2023-03-13T12:40:12.303Z,66.47
2023-03-13T12:41:20.938Z,66.30
2023-03-13T12:42:44.141Z,66.29
2023-03-13T12:44:00.771Z,66.33
2023-03-13T12:45:09.603Z,66.37
2023-03-13T12:46:26.833Z,66.53
2023-03-13T12:47:33.702Z,66.55
2023-03-13T12:48:53.937Z,66.55
2023-03-13T12:50:29.552Z,66.45
2023-03-13T12:51:45.838Z,66.37
2023-03-13T12:53:06.903Z,66.51
2023-03-13T12:54:33.065Z,66.40
2023-03-13T12:55:48.570Z,66.35
2023-03-13T12:57:06.612Z,66.41
2023-03-13T12:58:20.215Z,66.34
2023-03-13T12:59:24.923Z,66.44
2023-03-13T13:00:29.751Z,66.30
2023-03-13T13:01:35.823Z,66.02
2023-03-13T13:02:38.039Z,66.39
2023-03-13T13:03:54.189Z,65.90
2023-03-13T13:05:01.213Z,65.82
2023-03-13T13:06:07.051Z,65.94
2023-03-13T13:07:23.538Z,65.71
2023-03-13T13:08:26.704Z,65.92
2023-03-13T13:09:31.592Z,65.60
2023-03-13T13:10:33.217Z,65.80
2023-03-13T13:11:49.811Z,65.73
2023-03-13T13:13:31.871Z,65.60
2023-03-13T13:15:12.346Z,65.61
2023-03-13T13:16:19.825Z,65.74
2023-03-13T13:17:29.128Z,65.66
2023-03-13T13:18:33.422Z,65.76
2023-03-13T13:19:46.178Z,65.63
2023-03-13T13:20:51.012Z,65.24
2023-03-13T13:22:25.908Z,65.35
2023-03-13T13:23:33.984Z,65.42
2023-03-13T13:24:41.823Z,65.43
2023-03-13T13:25:43.447Z,65.41
2023-03-13T13:26:50.011Z,64.94
2023-03-13T13:27:51.955Z,64.99
2023-03-13T13:28:54.960Z,64.80
2023-03-13T13:30:00.512Z,64.40
2023-03-13T13:31:47.264Z,64.59
2023-03-13T13:32:51.460Z,64.14
2023-03-13T13:33:54.115Z,64.50
2023-03-13T13:35:00.691Z,64.18
2023-03-13T13:36:32.251Z,64.02
2023-03-13T13:37:34.327Z,64.17
2023-03-13T13:38:40.177Z,64.28
2023-03-13T13:39:47.955Z,63.96
2023-03-13T13:41:01.256Z,64.03
2023-03-13T13:42:42.047Z,63.89
2023-03-13T13:43:46.428Z,64.29
2023-03-13T13:44:58.107Z,64.07
2023-03-13T13:46:06.087Z,64.16
2023-03-13T13:47:26.186Z,64.05
2023-03-13T13:48:33.982Z,64.04
2023-03-13T13:49:52.869Z,64.05
2023-03-13T13:51:26.118Z,64.13
2023-03-13T13:52:38.051Z,63.87
2023-03-13T13:53:45.299Z,63.83
2023-03-13T13:54:56.963Z,64.02
2023-03-13T13:55:58.913Z,64.07
2023-03-13T13:57:03.464Z,64.27
2023-03-13T13:58:11.882Z,64.42
2023-03-13T13:59:31.201Z,64.22
2023-03-13T14:00:42.059Z,64.09
2023-03-13T14:01:44.797Z,64.32